sensor_id;sensor_type;location;lat;lon;timestamp;pressure;altitude;pressure_sealevel;temperature
69857;BMP280;57147;53.582;10.112;2023-03-01T00:03:16;102962.69;;;-0.58
69857;BMP280;57147;53.582;10.112;2023-03-01T00:08:16;102958.09;;;-0.64
69857;BMP280;57147;53.582;10.112;2023-03-01T00:13:19;102953.19;;;-0.67
69857;BMP280;57147;53.582;10.112;2023-03-01T00:18:20;102947.16;;;-0.68
69857;BMP280;57147;53.582;10.112;2023-03-01T00:23:22;102949.91;;;-0.69
69857;BMP280;57147;53.582;10.112;2023-03-01T00:28:25;102933.53;;;-0.79
69857;BMP280;57147;53.582;10.112;2023-03-01T00:33:26;102960.34;;;-0.69
69857;BMP280;57147;53.582;10.112;2023-03-01T00:38:26;102951.84;;;-0.71
69857;BMP280;57147;53.582;10.112;2023-03-01T00:43:30;102947.25;;;-0.77
69857;BMP280;57147;53.582;10.112;2023-03-01T00:48:30;102939.94;;;-0.74
69857;BMP280;57147;53.582;10.112;2023-03-01T00:53:31;102909.69;;;-0.93
69857;BMP280;57147;53.582;10.112;2023-03-01T00:58:35;102946.44;;;-0.78
69857;BMP280;57147;53.582;10.112;2023-03-01T01:03:35;102932.84;;;-0.90
69857;BMP280;57147;53.582;10.112;2023-03-01T01:08:36;102947.03;;;-0.84
69857;BMP280;57147;53.582;10.112;2023-03-01T01:13:40;102928.63;;;-0.91
69857;BMP280;57147;53.582;10.112;2023-03-01T01:18:41;102940.69;;;-0.90
69857;BMP280;57147;53.582;10.112;2023-03-01T01:23:42;102928.63;;;-0.91
69857;BMP280;57147;53.582;10.112;2023-03-01T01:28:46;102907.19;;;-1.02
69857;BMP280;57147;53.582;10.112;2023-03-01T01:33:48;102917.50;;;-0.93
69857;BMP280;57147;53.582;10.112;2023-03-01T01:38:49;102912.28;;;-0.93
69857;BMP280;57147;53.582;10.112;2023-03-01T01:44:15;102913.94;;;-0.92
69857;BMP280;57147;53.582;10.112;2023-03-01T01:49:30;102904.81;;;-0.88
69857;BMP280;57147;53.582;10.112;2023-03-01T01:54:39;102884.22;;;-0.99
69857;BMP280;57147;53.582;10.112;2023-03-01T01:59:47;102894.25;;;-0.78
69857;BMP280;57147;53.582;10.112;2023-03-01T02:04:52;102890.56;;;-0.67
69857;BMP280;57147;53.582;10.112;2023-03-01T02:09:54;102889.34;;;-0.47
69857;BMP280;57147;53.582;10.112;2023-03-01T02:14:58;102888.59;;;-0.23
69857;BMP280;57147;53.582;10.112;2023-03-01T02:20:07;102898.25;;;-0.07
69857;BMP280;57147;53.582;10.112;2023-03-01T02:25:26;102894.34;;;-0.03
69857;BMP280;57147;53.582;10.112;2023-03-01T02:30:30;102888.28;;;-0.20
69857;BMP280;57147;53.582;10.112;2023-03-01T02:35:33;102881.56;;;-0.23
69857;BMP280;57147;53.582;10.112;2023-03-01T02:40:37;102885.81;;;-0.22
69857;BMP280;57147;53.582;10.112;2023-03-01T02:45:43;102853.97;;;-0.41
69857;BMP280;57147;53.582;10.112;2023-03-01T02:51:02;102876.19;;;-0.21
69857;BMP280;57147;53.582;10.112;2023-03-01T02:56:04;102870.50;;;-0.08
69857;BMP280;57147;53.582;10.112;2023-03-01T03:01:07;102870.31;;;-0.15
69857;BMP280;57147;53.582;10.112;2023-03-01T03:06:08;102868.66;;;-0.32
69857;BMP280;57147;53.582;10.112;2023-03-01T03:11:09;102858.06;;;-0.23
69857;BMP280;57147;53.582;10.112;2023-03-01T03:16:12;102858.38;;;-0.26
69857;BMP280;57147;53.582;10.112;2023-03-01T03:21:13;102849.59;;;-0.25
69857;BMP280;57147;53.582;10.112;2023-03-01T03:26:14;102862.50;;;-0.07
69857;BMP280;57147;53.582;10.112;2023-03-01T03:31:17;102862.38;;;0.27
69857;BMP280;57147;53.582;10.112;2023-03-01T03:36:20;102858.44;;;0.31
69857;BMP280;57147;53.582;10.112;2023-03-01T03:41:21;102858.28;;;0.49
69857;BMP280;57147;53.582;10.112;2023-03-01T03:46:25;102844.69;;;0.54
69857;BMP280;57147;53.582;10.112;2023-03-01T03:51:25;102853.19;;;0.56
69857;BMP280;57147;53.582;10.112;2023-03-01T03:56:26;102853.63;;;0.67
69857;BMP280;57147;53.582;10.112;2023-03-01T04:01:29;102837.09;;;0.83
69857;BMP280;57147;53.582;10.112;2023-03-01T04:06:32;102848.84;;;0.95
69857;BMP280;57147;53.582;10.112;2023-03-01T04:11:33;102846.78;;;1.13
69857;BMP280;57147;53.582;10.112;2023-03-01T04:16:36;102839.25;;;1.19
69857;BMP280;57147;53.582;10.112;2023-03-01T04:21:41;102849.03;;;1.25
69857;BMP280;57147;53.582;10.112;2023-03-01T04:26:41;102847.72;;;1.29
69857;BMP280;57147;53.582;10.112;2023-03-01T04:31:44;102840.09;;;1.42
69857;BMP280;57147;53.582;10.112;2023-03-01T04:36:45;102833.47;;;1.31
69857;BMP280;57147;53.582;10.112;2023-03-01T04:41:46;102843.97;;;1.46
69857;BMP280;57147;53.582;10.112;2023-03-01T04:46:51;102838.75;;;1.46
69857;BMP280;57147;53.582;10.112;2023-03-01T04:51:51;102848.50;;;1.60
69857;BMP280;57147;53.582;10.112;2023-03-01T04:56:52;102844.34;;;1.74
69857;BMP280;57147;53.582;10.112;2023-03-01T05:01:56;102846.41;;;1.78
69857;BMP280;57147;53.582;10.112;2023-03-01T05:06:57;102832.31;;;1.79
69857;BMP280;57147;53.582;10.112;2023-03-01T05:11:58;102828.88;;;1.79
69857;BMP280;57147;53.582;10.112;2023-03-01T05:17:01;102833.22;;;1.72
69857;BMP280;57147;53.582;10.112;2023-03-01T05:22:02;102828.63;;;1.74
69857;BMP280;57147;53.582;10.112;2023-03-01T05:27:03;102834.28;;;1.77
69857;BMP280;57147;53.582;10.112;2023-03-01T05:32:06;102842.22;;;1.69
69857;BMP280;57147;53.582;10.112;2023-03-01T05:37:07;102844.09;;;1.83
69857;BMP280;57147;53.582;10.112;2023-03-01T05:42:10;102833.25;;;1.87
69857;BMP280;57147;53.582;10.112;2023-03-01T05:47:13;102812.63;;;1.83
69857;BMP280;57147;53.582;10.112;2023-03-01T05:52:14;102806.13;;;1.79
69857;BMP280;57147;53.582;10.112;2023-03-01T05:57:15;102811.72;;;1.76
69857;BMP280;57147;53.582;10.112;2023-03-01T06:02:18;102811.16;;;1.66
69857;BMP280;57147;53.582;10.112;2023-03-01T06:07:18;102796.47;;;1.57
69857;BMP280;57147;53.582;10.112;2023-03-01T06:12:19;102800.41;;;1.53
69857;BMP280;57147;53.582;10.112;2023-03-01T06:17:22;102798.69;;;1.68
69857;BMP280;57147;53.582;10.112;2023-03-01T06:22:23;102798.53;;;1.70
69857;BMP280;57147;53.582;10.112;2023-03-01T06:27:24;102804.16;;;1.81
69857;BMP280;57147;53.582;10.112;2023-03-01T06:32:28;102806.47;;;1.99
69857;BMP280;57147;53.582;10.112;2023-03-01T06:37:28;102806.19;;;2.09
69857;BMP280;57147;53.582;10.112;2023-03-01T06:42:29;102809.69;;;2.24
69857;BMP280;57147;53.582;10.112;2023-03-01T06:47:33;102803.13;;;2.35
69857;BMP280;57147;53.582;10.112;2023-03-01T06:52:33;102816.56;;;2.25
69857;BMP280;57147;53.582;10.112;2023-03-01T06:57:34;102810.75;;;2.44
69857;BMP280;57147;53.582;10.112;2023-03-01T07:02:37;102835.44;;;2.65
69857;BMP280;57147;53.582;10.112;2023-03-01T07:07:38;102823.13;;;2.95
69857;BMP280;57147;53.582;10.112;2023-03-01T07:12:38;102825.34;;;3.12
69857;BMP280;57147;53.582;10.112;2023-03-01T07:17:41;102825.03;;;3.22
69857;BMP280;57147;53.582;10.112;2023-03-01T07:22:42;102815.06;;;3.17
69857;BMP280;57147;53.582;10.112;2023-03-01T07:27:43;102804.47;;;3.26
69857;BMP280;57147;53.582;10.112;2023-03-01T07:32:46;102802.72;;;3.33
69857;BMP280;57147;53.582;10.112;2023-03-01T07:37:47;102795.66;;;3.33
69857;BMP280;57147;53.582;10.112;2023-03-01T07:42:48;102830.06;;;3.02
69857;BMP280;57147;53.582;10.112;2023-03-01T07:47:52;102839.34;;;3.41
69857;BMP280;57147;53.582;10.112;2023-03-01T07:52:52;102832.41;;;3.76
69857;BMP280;57147;53.582;10.112;2023-03-01T07:57:53;102825.97;;;3.78
69857;BMP280;57147;53.582;10.112;2023-03-01T08:02:58;102823.84;;;3.24
69857;BMP280;57147;53.582;10.112;2023-03-01T08:08:00;102829.00;;;3.54
69857;BMP280;57147;53.582;10.112;2023-03-01T08:13:01;102843.44;;;3.86
69857;BMP280;57147;53.582;10.112;2023-03-01T08:18:04;102835.06;;;4.04
69857;BMP280;57147;53.582;10.112;2023-03-01T08:23:04;102840.31;;;4.04
69857;BMP280;57147;53.582;10.112;2023-03-01T08:28:07;102841.88;;;4.60
69857;BMP280;57147;53.582;10.112;2023-03-01T08:33:10;102847.44;;;4.79
69857;BMP280;57147;53.582;10.112;2023-03-01T08:38:11;102837.31;;;4.41
69857;BMP280;57147;53.582;10.112;2023-03-01T08:43:11;102831.91;;;4.49
69857;BMP280;57147;53.582;10.112;2023-03-01T08:48:15;102830.91;;;4.50
69857;BMP280;57147;53.582;10.112;2023-03-01T08:53:15;102822.94;;;4.85
69857;BMP280;57147;53.582;10.112;2023-03-01T08:58:16;102851.84;;;5.46
69857;BMP280;57147;53.582;10.112;2023-03-01T09:03:19;102849.81;;;5.34
69857;BMP280;57147;53.582;10.112;2023-03-01T09:08:20;102863.56;;;5.23
69857;BMP280;57147;53.582;10.112;2023-03-01T09:13:21;102856.47;;;5.30
69857;BMP280;57147;53.582;10.112;2023-03-01T09:18:24;102850.47;;;5.63
69857;BMP280;57147;53.582;10.112;2023-03-01T09:23:25;102862.78;;;6.08
69857;BMP280;57147;53.582;10.112;2023-03-01T09:28:25;102874.94;;;6.23
69857;BMP280;57147;53.582;10.112;2023-03-01T09:33:29;102873.88;;;6.37
69857;BMP280;57147;53.582;10.112;2023-03-01T09:38:31;102866.66;;;5.73
69857;BMP280;57147;53.582;10.112;2023-03-01T09:43:40;102865.22;;;5.90
69857;BMP280;57147;53.582;10.112;2023-03-01T09:48:50;102836.75;;;5.00
69857;BMP280;57147;53.582;10.112;2023-03-01T09:53:52;102825.50;;;5.32
69857;BMP280;57147;53.582;10.112;2023-03-01T09:58:56;102845.75;;;5.78
69857;BMP280;57147;53.582;10.112;2023-03-01T10:04:17;102853.84;;;5.76
69857;BMP280;57147;53.582;10.112;2023-03-01T10:09:23;102809.97;;;4.90
69857;BMP280;57147;53.582;10.112;2023-03-01T10:14:30;102796.53;;;4.58
69857;BMP280;57147;53.582;10.112;2023-03-01T10:19:39;102787.63;;;4.59
69857;BMP280;57147;53.582;10.112;2023-03-01T10:24:40;102792.19;;;4.85
69857;BMP280;57147;53.582;10.112;2023-03-01T10:29:46;102799.91;;;5.07
69857;BMP280;57147;53.582;10.112;2023-03-01T10:34:51;102788.56;;;5.06
69857;BMP280;57147;53.582;10.112;2023-03-01T10:40:02;102790.22;;;5.20
69857;BMP280;57147;53.582;10.112;2023-03-01T10:45:25;102784.97;;;5.40
69857;BMP280;57147;53.582;10.112;2023-03-01T10:50:29;102797.94;;;5.55
69857;BMP280;57147;53.582;10.112;2023-03-01T10:55:34;102788.22;;;5.35
69857;BMP280;57147;53.582;10.112;2023-03-01T11:00:46;102759.81;;;5.18
69857;BMP280;57147;53.582;10.112;2023-03-01T11:06:01;102746.84;;;5.29
69857;BMP280;57147;53.582;10.112;2023-03-01T11:16:24;102787.81;;;5.45
69857;BMP280;57147;53.582;10.112;2023-03-01T11:21:31;102788.19;;;5.75
69857;BMP280;57147;53.582;10.112;2023-03-01T11:26:37;102787.75;;;5.91
69857;BMP280;57147;53.582;10.112;2023-03-01T11:31:40;102784.91;;;5.86
69857;BMP280;57147;53.582;10.112;2023-03-01T11:36:48;102762.19;;;5.92
69857;BMP280;57147;53.582;10.112;2023-03-01T11:41:56;102774.41;;;6.44
69857;BMP280;57147;53.582;10.112;2023-03-01T11:47:17;102773.41;;;6.76
69857;BMP280;57147;53.582;10.112;2023-03-01T11:52:31;102765.81;;;6.55
69857;BMP280;57147;53.582;10.112;2023-03-01T11:57:43;102759.59;;;7.06
69857;BMP280;57147;53.582;10.112;2023-03-01T12:03:16;102756.03;;;7.43
69857;BMP280;57147;53.582;10.112;2023-03-01T12:08:26;102756.91;;;7.74
69857;BMP280;57147;53.582;10.112;2023-03-01T12:19:24;102746.03;;;7.63
69857;BMP280;57147;53.582;10.112;2023-03-01T12:24:46;102755.47;;;7.78
69857;BMP280;57147;53.582;10.112;2023-03-01T12:29:51;102743.38;;;8.00
69857;BMP280;57147;53.582;10.112;2023-03-01T12:35:20;102754.13;;;8.05
69857;BMP280;57147;53.582;10.112;2023-03-01T12:40:41;102744.44;;;7.99
69857;BMP280;57147;53.582;10.112;2023-03-01T12:45:56;102729.56;;;8.58
69857;BMP280;57147;53.582;10.112;2023-03-01T12:51:01;102704.88;;;8.46
69857;BMP280;57147;53.582;10.112;2023-03-01T12:56:10;102723.69;;;8.56
69857;BMP280;57147;53.582;10.112;2023-03-01T13:01:19;102713.84;;;8.86
69857;BMP280;57147;53.582;10.112;2023-03-01T13:06:26;102724.00;;;8.89
69857;BMP280;57147;53.582;10.112;2023-03-01T13:11:31;102715.84;;;9.02
69857;BMP280;57147;53.582;10.112;2023-03-01T13:16:41;102714.91;;;8.97
69857;BMP280;57147;53.582;10.112;2023-03-01T13:21:43;102721.25;;;9.07
69857;BMP280;57147;53.582;10.112;2023-03-01T13:27:20;102711.13;;;9.04
69857;BMP280;57147;53.582;10.112;2023-03-01T13:32:23;102704.94;;;9.50
69857;BMP280;57147;53.582;10.112;2023-03-01T13:37:32;102722.94;;;9.88
69857;BMP280;57147;53.582;10.112;2023-03-01T13:42:44;102701.72;;;10.05
69857;BMP280;57147;53.582;10.112;2023-03-01T13:47:45;102711.25;;;10.01
69857;BMP280;57147;53.582;10.112;2023-03-01T13:52:49;102717.66;;;10.05
69857;BMP280;57147;53.582;10.112;2023-03-01T13:57:56;102722.69;;;10.02
69857;BMP280;57147;53.582;10.112;2023-03-01T14:03:02;102718.59;;;9.82
69857;BMP280;57147;53.582;10.112;2023-03-01T14:08:03;102714.78;;;10.07
69857;BMP280;57147;53.582;10.112;2023-03-01T14:13:18;102705.28;;;10.11
69857;BMP280;57147;53.582;10.112;2023-03-01T14:18:24;102686.84;;;10.32
69857;BMP280;57147;53.582;10.112;2023-03-01T14:23:29;102691.28;;;9.99
69857;BMP280;57147;53.582;10.112;2023-03-01T14:28:33;102689.63;;;10.26
69857;BMP280;57147;53.582;10.112;2023-03-01T14:33:35;102672.97;;;10.14
69857;BMP280;57147;53.582;10.112;2023-03-01T14:38:38;102684.88;;;10.28
69857;BMP280;57147;53.582;10.112;2023-03-01T14:43:44;102675.75;;;9.62
69857;BMP280;57147;53.582;10.112;2023-03-01T14:48:47;102673.50;;;9.19
69857;BMP280;57147;53.582;10.112;2023-03-01T14:53:48;102661.47;;;9.40
69857;BMP280;57147;53.582;10.112;2023-03-01T14:58:58;102659.63;;;9.80
69857;BMP280;57147;53.582;10.112;2023-03-01T15:04:01;102651.56;;;10.04
69857;BMP280;57147;53.582;10.112;2023-03-01T15:09:03;102648.84;;;9.70
69857;BMP280;57147;53.582;10.112;2023-03-01T15:14:26;102644.53;;;9.41
69857;BMP280;57147;53.582;10.112;2023-03-01T15:19:27;102642.91;;;9.11
69857;BMP280;57147;53.582;10.112;2023-03-01T15:24:29;102639.44;;;8.76
69857;BMP280;57147;53.582;10.112;2023-03-01T15:29:33;102635.03;;;8.47
69857;BMP280;57147;53.582;10.112;2023-03-01T15:34:35;102635.00;;;8.23
69857;BMP280;57147;53.582;10.112;2023-03-01T15:39:38;102633.06;;;8.00
69857;BMP280;57147;53.582;10.112;2023-03-01T15:44:42;102638.25;;;7.95
69857;BMP280;57147;53.582;10.112;2023-03-01T15:49:43;102627.22;;;7.69
69857;BMP280;57147;53.582;10.112;2023-03-01T15:54:44;102629.06;;;7.50
69857;BMP280;57147;53.582;10.112;2023-03-01T15:59:47;102624.59;;;7.50
69857;BMP280;57147;53.582;10.112;2023-03-01T16:04:48;102619.16;;;7.45
69857;BMP280;57147;53.582;10.112;2023-03-01T16:09:49;102617.25;;;7.34
69857;BMP280;57147;53.582;10.112;2023-03-01T16:14:52;102613.88;;;7.27
69857;BMP280;57147;53.582;10.112;2023-03-01T16:19:53;102586.44;;;7.10
69857;BMP280;57147;53.582;10.112;2023-03-01T16:24:56;102587.56;;;6.96
69857;BMP280;57147;53.582;10.112;2023-03-01T16:29:59;102587.84;;;6.88
69857;BMP280;57147;53.582;10.112;2023-03-01T16:35:00;102597.50;;;6.57
69857;BMP280;57147;53.582;10.112;2023-03-01T16:40:01;102592.81;;;6.28
69857;BMP280;57147;53.582;10.112;2023-03-01T16:45:05;102591.66;;;6.17
69857;BMP280;57147;53.582;10.112;2023-03-01T16:50:07;102599.25;;;6.07
69857;BMP280;57147;53.582;10.112;2023-03-01T16:55:08;102590.84;;;5.85
69857;BMP280;57147;53.582;10.112;2023-03-01T17:00:13;102572.09;;;5.62
69857;BMP280;57147;53.582;10.112;2023-03-01T17:05:14;102557.31;;;5.54
69857;BMP280;57147;53.582;10.112;2023-03-01T17:15:18;102511.81;;;5.27
69857;BMP280;57147;53.582;10.112;2023-03-01T17:20:20;102550.16;;;5.10
69857;BMP280;57147;53.582;10.112;2023-03-01T17:25:20;102558.88;;;5.04
69857;BMP280;57147;53.582;10.112;2023-03-01T17:30:24;102563.34;;;4.90
69857;BMP280;57147;53.582;10.112;2023-03-01T17:35:25;102551.44;;;4.75
69857;BMP280;57147;53.582;10.112;2023-03-01T17:40:25;102551.66;;;4.53
69857;BMP280;57147;53.582;10.112;2023-03-01T17:45:29;102560.09;;;4.29
69857;BMP280;57147;53.582;10.112;2023-03-01T17:50:29;102572.56;;;4.07
69857;BMP280;57147;53.582;10.112;2023-03-01T17:55:30;102564.91;;;3.99
69857;BMP280;57147;53.582;10.112;2023-03-01T18:00:34;102566.88;;;3.90
69857;BMP280;57147;53.582;10.112;2023-03-01T18:05:47;102568.63;;;3.70
69857;BMP280;57147;53.582;10.112;2023-03-01T18:10:47;102533.53;;;3.43
69857;BMP280;57147;53.582;10.112;2023-03-01T18:15:56;102556.59;;;3.48
69857;BMP280;57147;53.582;10.112;2023-03-01T18:21:03;102560.16;;;3.34
69857;BMP280;57147;53.582;10.112;2023-03-01T18:26:08;102561.28;;;3.24
69857;BMP280;57147;53.582;10.112;2023-03-01T18:31:13;102555.06;;;2.98
69857;BMP280;57147;53.582;10.112;2023-03-01T18:36:20;102550.91;;;2.61
69857;BMP280;57147;53.582;10.112;2023-03-01T18:41:22;102547.22;;;2.76
69857;BMP280;57147;53.582;10.112;2023-03-01T18:46:26;102568.16;;;2.70
69857;BMP280;57147;53.582;10.112;2023-03-01T18:51:27;102577.13;;;2.82
69857;BMP280;57147;53.582;10.112;2023-03-01T18:56:28;102562.34;;;2.96
69857;BMP280;57147;53.582;10.112;2023-03-01T19:01:33;102576.56;;;3.14
69857;BMP280;57147;53.582;10.112;2023-03-01T19:06:34;102588.78;;;3.29
69857;BMP280;57147;53.582;10.112;2023-03-01T19:11:36;102584.47;;;3.49
69857;BMP280;57147;53.582;10.112;2023-03-01T19:16:40;102571.59;;;3.61
69857;BMP280;57147;53.582;10.112;2023-03-01T19:21:40;102579.28;;;3.62
69857;BMP280;57147;53.582;10.112;2023-03-01T19:26:41;102593.34;;;3.82
69857;BMP280;57147;53.582;10.112;2023-03-01T19:31:44;102582.16;;;3.67
69857;BMP280;57147;53.582;10.112;2023-03-01T19:36:45;102575.97;;;3.47
69857;BMP280;57147;53.582;10.112;2023-03-01T19:41:47;102588.47;;;3.45
69857;BMP280;57147;53.582;10.112;2023-03-01T19:46:50;102585.53;;;3.27
69857;BMP280;57147;53.582;10.112;2023-03-01T19:51:51;102571.25;;;3.01
69857;BMP280;57147;53.582;10.112;2023-03-01T19:56:52;102567.69;;;3.15
69857;BMP280;57147;53.582;10.112;2023-03-01T20:01:56;102594.97;;;3.49
69857;BMP280;57147;53.582;10.112;2023-03-01T20:06:56;102593.91;;;3.71
69857;BMP280;57147;53.582;10.112;2023-03-01T20:11:57;102553.34;;;3.46
69857;BMP280;57147;53.582;10.112;2023-03-01T20:17:00;102595.53;;;3.72
69857;BMP280;57147;53.582;10.112;2023-03-01T20:22:01;102588.63;;;3.37
69857;BMP280;57147;53.582;10.112;2023-03-01T20:27:02;102570.66;;;3.34
69857;BMP280;57147;53.582;10.112;2023-03-01T20:32:05;102554.97;;;3.47
69857;BMP280;57147;53.582;10.112;2023-03-01T20:37:06;102576.91;;;3.67
69857;BMP280;57147;53.582;10.112;2023-03-01T20:42:07;102579.34;;;3.75
69857;BMP280;57147;53.582;10.112;2023-03-01T20:47:10;102572.97;;;3.56
69857;BMP280;57147;53.582;10.112;2023-03-01T20:52:14;102594.09;;;3.70
69857;BMP280;57147;53.582;10.112;2023-03-01T20:57:18;102592.34;;;3.90
69857;BMP280;57147;53.582;10.112;2023-03-01T21:02:22;102595.97;;;3.82
69857;BMP280;57147;53.582;10.112;2023-03-01T21:07:22;102592.97;;;3.51
69857;BMP280;57147;53.582;10.112;2023-03-01T21:12:23;102588.47;;;3.45
69857;BMP280;57147;53.582;10.112;2023-03-01T21:17:26;102564.00;;;3.03
69857;BMP280;57147;53.582;10.112;2023-03-01T21:22:27;102569.16;;;2.90
69857;BMP280;57147;53.582;10.112;2023-03-01T21:27:27;102584.13;;;2.96
69857;BMP280;57147;53.582;10.112;2023-03-01T21:32:31;102576.97;;;3.11
69857;BMP280;57147;53.582;10.112;2023-03-01T21:37:31;102584.28;;;3.22
69857;BMP280;57147;53.582;10.112;2023-03-01T21:42:32;102577.16;;;3.44
69857;BMP280;57147;53.582;10.112;2023-03-01T21:47:35;102564.53;;;3.61
69857;BMP280;57147;53.582;10.112;2023-03-01T21:52:36;102563.53;;;3.62
69857;BMP280;57147;53.582;10.112;2023-03-01T21:57:36;102587.03;;;3.70
69857;BMP280;57147;53.582;10.112;2023-03-01T22:02:40;102569.97;;;3.53
69857;BMP280;57147;53.582;10.112;2023-03-01T22:07:40;102572.03;;;3.64
69857;BMP280;57147;53.582;10.112;2023-03-01T22:12:41;102566.78;;;3.64
69857;BMP280;57147;53.582;10.112;2023-03-01T22:17:44;102573.19;;;3.55
69857;BMP280;57147;53.582;10.112;2023-03-01T22:22:45;102578.19;;;3.15
69857;BMP280;57147;53.582;10.112;2023-03-01T22:27:45;102588.28;;;3.18
69857;BMP280;57147;53.582;10.112;2023-03-01T22:32:48;102575.13;;;3.40
69857;BMP280;57147;53.582;10.112;2023-03-01T22:37:49;102570.25;;;3.02
69857;BMP280;57147;53.582;10.112;2023-03-01T22:42:50;102566.88;;;3.08
69857;BMP280;57147;53.582;10.112;2023-03-01T22:47:53;102581.97;;;3.34
69857;BMP280;57147;53.582;10.112;2023-03-01T22:52:54;102570.41;;;3.29
69857;BMP280;57147;53.582;10.112;2023-03-01T22:57:54;102586.00;;;3.02
69857;BMP280;57147;53.582;10.112;2023-03-01T23:02:57;102584.50;;;2.93
69857;BMP280;57147;53.582;10.112;2023-03-01T23:07:58;102572.25;;;2.79
69857;BMP280;57147;53.582;10.112;2023-03-01T23:12:59;102563.03;;;2.40
69857;BMP280;57147;53.582;10.112;2023-03-01T23:18:02;102579.13;;;2.37
69857;BMP280;57147;53.582;10.112;2023-03-01T23:23:02;102575.88;;;2.57
69857;BMP280;57147;53.582;10.112;2023-03-01T23:28:03;102578.75;;;2.83
69857;BMP280;57147;53.582;10.112;2023-03-01T23:33:06;102588.25;;;2.63
69857;BMP280;57147;53.582;10.112;2023-03-01T23:38:07;102588.97;;;2.35
69857;BMP280;57147;53.582;10.112;2023-03-01T23:43:07;102574.59;;;2.25
69857;BMP280;57147;53.582;10.112;2023-03-01T23:48:13;102562.13;;;2.33
69857;BMP280;57147;53.582;10.112;2023-03-01T23:53:17;102576.47;;;2.52
69857;BMP280;57147;53.582;10.112;2023-03-01T23:58:18;102565.75;;;2.53
